Time;durP1;ratioP1;P1;durP2;ratioP2;P2;SDS_P1;SDS_P2;PMS_P1;PMS_P2;Temp;Humidity;BMP_temperature;BMP_pressure;BME280_temperature;BME280_humidity;BME280_pressure;Samples;Min_cycle;Max_cycle;Signal;HPM_P1;HPM_P2
2023/06/18 00:00:32;;;;;;;1.15;1.05;;;22.30;95.90;;;;;;6272831;22;20180;-82
2023/06/18 00:03:00;;;;;;;2.05;0.93;;;22.30;95.90;;;;;;6272523;22;20166;-82
2023/06/18 00:05:29;;;;;;;1.00;0.82;;;22.30;96.00;;;;;;6273527;22;20181;-79
2023/06/18 00:07:57;;;;;;;2.78;1.33;;;22.30;95.90;;;;;;6273066;22;20537;-84
2023/06/18 00:10:26;;;;;;;0.40;0.40;;;22.30;95.90;;;;;;6272799;22;20244;-81
2023/06/18 00:12:54;;;;;;;1.38;1.02;;;22.30;96.30;;;;;;6273551;22;20688;-82
2023/06/18 00:15:23;;;;;;;3.08;1.42;;;22.30;95.80;;;;;;6272041;22;20495;-82
2023/06/18 00:17:52;;;;;;;0.70;0.70;;;22.30;96.00;;;;;;6274335;22;20505;-83
2023/06/18 00:20:21;;;;;;;0.93;0.93;;;22.30;96.10;;;;;;6272210;22;20533;-81
2023/06/18 00:22:53;;;;;;;0.93;0.65;;;22.30;96.10;;;;;;6273012;22;20501;-81
2023/06/18 00:25:21;;;;;;;0.70;0.65;;;22.30;96.20;;;;;;6272707;22;20218;-82
2023/06/18 00:27:50;;;;;;;1.05;0.60;;;22.30;96.10;;;;;;6271101;22;20627;-81
2023/06/18 00:30:18;;;;;;;4.43;1.27;;;22.30;96.00;;;;;;6273779;22;20622;-81
2023/06/18 00:32:48;;;;;;;0.50;0.50;;;22.30;96.00;;;;;;6274031;22;20643;-83
2023/06/18 00:35:18;;;;;;;1.10;0.82;;;22.30;96.00;;;;;;6270544;22;20184;-81
2023/06/18 00:37:47;;;;;;;0.85;0.82;;;22.20;96.00;;;;;;6271034;22;20581;-82
2023/06/18 00:40:16;;;;;;;0.43;0.43;;;22.30;95.90;;;;;;6270785;22;20194;-83
2023/06/18 00:42:44;;;;;;;0.57;0.57;;;22.30;95.90;;;;;;6271436;22;20170;-82
2023/06/18 00:45:13;;;;;;;0.45;0.45;;;22.30;95.80;;;;;;6271741;22;20183;-81
2023/06/18 00:47:44;;;;;;;0.95;0.95;;;22.30;95.80;;;;;;6272960;22;20177;-82
2023/06/18 00:50:16;;;;;;;1.02;0.93;;;22.30;95.70;;;;;;6272445;22;20180;-81
2023/06/18 00:52:47;;;;;;;0.32;0.30;;;22.30;95.80;;;;;;6273155;22;20165;-82
2023/06/18 00:55:17;;;;;;;0.40;0.40;;;22.30;95.70;;;;;;6271948;22;20216;-81
2023/06/18 00:57:49;;;;;;;0.40;0.40;;;22.40;95.70;;;;;;6272156;22;20573;-83
2023/06/18 01:00:20;;;;;;;0.70;0.50;;;22.40;95.70;;;;;;6271483;22;20185;-81
2023/06/18 01:02:53;;;;;;;3.30;0.90;;;22.40;95.60;;;;;;6273224;22;20538;-82
2023/06/18 01:05:22;;;;;;;1.10;1.02;;;22.40;95.60;;;;;;6271727;22;20665;-81
2023/06/18 01:07:53;;;;;;;0.52;0.50;;;22.40;95.50;;;;;;6273382;22;20173;-81
2023/06/18 01:10:22;;;;;;;0.60;0.40;;;22.40;95.40;;;;;;6273332;22;20154;-81
2023/06/18 01:12:54;;;;;;;0.70;0.30;;;22.40;95.50;;;;;;6272732;22;20170;-81
2023/06/18 01:15:22;;;;;;;0.60;0.60;;;22.40;95.40;;;;;;6273040;22;20154;-81
2023/06/18 01:17:52;;;;;;;0.30;0.30;;;22.40;95.40;;;;;;6272876;22;20201;-81
2023/06/18 01:20:21;;;;;;;0.30;0.30;;;22.40;95.40;;;;;;6266746;22;20176;-81
2023/06/18 01:22:59;;;;;;;0.35;0.35;;;22.40;95.40;;;;;;6273805;22;20245;-83
2023/06/18 01:25:29;;;;;;;0.60;0.60;;;22.40;95.30;;;;;;6271497;22;20750;-81
2023/06/18 01:27:58;;;;;;;0.38;0.32;;;22.40;95.30;;;;;;6273455;22;20162;-82
2023/06/18 01:30:26;;;;;;;0.70;0.40;;;22.40;95.30;;;;;;6271314;22;20619;-81
2023/06/18 01:32:55;;;;;;;1.00;0.93;;;22.50;95.30;;;;;;6272888;22;20180;-82
2023/06/18 01:35:24;;;;;;;0.50;0.50;;;22.40;95.30;;;;;;6272908;22;20223;-83
2023/06/18 01:38:18;;;;;;;0.47;0.47;;;22.40;95.30;;;;;;6272907;22;20193;-81
2023/06/18 01:40:49;;;;;;;0.40;0.40;;;22.40;95.50;;;;;;6270964;22;20194;-83
2023/06/18 01:43:25;;;;;;;0.50;0.50;;;22.40;95.40;;;;;;6270970;22;20615;-83
2023/06/18 01:45:58;;;;;;;0.95;0.77;;;22.50;95.60;;;;;;6272018;22;20160;-82
2023/06/18 01:48:29;;;;;;;1.20;0.85;;;22.40;96.00;;;;;;6271789;22;20219;-83
2023/06/18 01:50:59;;;;;;;1.75;0.95;;;22.40;96.10;;;;;;6273954;22;20169;-83
2023/06/18 01:53:31;;;;;;;1.05;0.77;;;22.40;95.90;;;;;;6274530;22;20177;-83
2023/06/18 01:56:01;;;;;;;0.93;0.73;;;22.40;96.00;;;;;;6273554;22;20153;-83
2023/06/18 01:58:33;;;;;;;2.25;1.00;;;22.40;96.30;;;;;;6275380;22;20725;-83
2023/06/18 02:01:02;;;;;;;0.80;0.73;;;22.40;96.40;;;;;;6273826;22;20197;-82
2023/06/18 02:03:31;;;;;;;7.47;0.57;;;22.40;96.20;;;;;;6274762;22;20170;-81
2023/06/18 02:05:59;;;;;;;8.57;0.68;;;22.40;96.20;;;;;;6274185;22;20170;-84
2023/06/18 02:08:29;;;;;;;0.75;0.60;;;22.40;96.00;;;;;;6275355;22;20173;-82
2023/06/18 02:10:59;;;;;;;2.95;1.58;;;22.40;95.90;;;;;;6272449;22;20490;-83
2023/06/18 02:13:27;;;;;;;0.50;0.50;;;22.40;96.10;;;;;;6248809;22;20173;-82
2023/06/18 02:15:55;;;;;;;0.63;0.63;;;22.40;96.50;;;;;;6272344;22;20172;-82
2023/06/18 02:18:24;;;;;;;1.55;0.60;;;22.40;96.50;;;;;;6273226;22;20272;-83
2023/06/18 02:20:53;;;;;;;0.50;0.50;;;22.40;96.40;;;;;;6273616;22;20637;-82
2023/06/18 02:23:21;;;;;;;0.43;0.43;;;22.40;96.30;;;;;;6275266;22;20166;-83
2023/06/18 02:25:51;;;;;;;0.93;0.63;;;22.40;96.10;;;;;;6274168;22;20166;-81
2023/06/18 02:28:19;;;;;;;2.65;1.08;;;22.40;96.30;;;;;;6274094;22;20623;-83
2023/06/18 02:30:48;;;;;;;0.90;0.68;;;22.40;96.40;;;;;;6272471;22;20177;-82
2023/06/18 02:33:18;;;;;;;0.40;0.40;;;22.40;96.70;;;;;;6272594;22;20177;-81
2023/06/18 02:35:46;;;;;;;1.27;0.80;;;22.40;96.70;;;;;;6274301;22;20157;-83
2023/06/18 02:38:15;;;;;;;1.30;1.05;;;22.40;96.80;;;;;;6272686;22;20205;-83
2023/06/18 02:40:43;;;;;;;1.90;1.30;;;22.40;96.80;;;;;;6273923;22;20194;-82
2023/06/18 02:43:13;;;;;;;0.40;0.40;;;22.40;96.90;;;;;;6273668;22;20174;-82
2023/06/18 02:45:41;;;;;;;1.10;0.85;;;22.40;97.10;;;;;;6272127;22;20166;-82
2023/06/18 02:48:10;;;;;;;2.60;0.85;;;22.30;97.40;;;;;;6273025;22;20208;-81
2023/06/18 02:50:38;;;;;;;2.03;1.25;;;22.40;97.40;;;;;;6273142;22;20173;-82
2023/06/18 02:53:06;;;;;;;0.70;0.70;;;22.30;97.40;;;;;;6273897;22;20169;-82
2023/06/18 02:55:35;;;;;;;0.85;0.85;;;22.30;97.50;;;;;;6273081;22;20166;-82
2023/06/18 02:58:09;;;;;;;1.10;1.00;;;22.30;97.50;;;;;;6273441;22;20194;-81
2023/06/18 03:00:38;;;;;;;0.73;0.73;;;22.30;97.80;;;;;;6273702;22;20655;-82
2023/06/18 03:03:07;;;;;;;0.65;0.65;;;22.30;97.80;;;;;;6272030;22;20165;-81
2023/06/18 03:05:35;;;;;;;7.68;1.15;;;22.30;98.00;;;;;;6273483;22;20714;-82
2023/06/18 03:08:06;;;;;;;0.50;0.50;;;22.30;98.10;;;;;;6273146;22;20170;-82
2023/06/18 03:10:34;;;;;;;3.72;1.10;;;22.30;98.00;;;;;;6274002;22;20170;-80
2023/06/18 03:13:03;;;;;;;0.93;0.63;;;22.30;98.00;;;;;;6275856;22;20266;-82
2023/06/18 03:15:31;;;;;;;0.73;0.68;;;22.30;97.90;;;;;;6272648;22;20623;-82
2023/06/18 03:18:01;;;;;;;0.50;0.50;;;22.30;97.90;;;;;;6274245;22;20208;-81
2023/06/18 03:20:30;;;;;;;2.08;0.85;;;22.30;98.10;;;;;;6273802;22;20478;-81
2023/06/18 03:22:59;;;;;;;0.85;0.60;;;22.30;98.20;;;;;;6275184;22;20178;-82
2023/06/18 03:25:27;;;;;;;0.45;0.45;;;22.30;98.20;;;;;;6273207;22;20169;-81
2023/06/18 03:27:55;;;;;;;0.80;0.65;;;22.30;98.20;;;;;;6273992;22;20183;-80
2023/06/18 03:30:24;;;;;;;1.67;0.73;;;22.40;98.30;;;;;;6272869;22;21055;-82
2023/06/18 03:32:55;;;;;;;0.82;0.43;;;22.30;98.30;;;;;;6274581;22;20267;-81
2023/06/18 03:35:25;;;;;;;1.92;1.08;;;22.40;98.30;;;;;;6273975;22;20178;-81
2023/06/18 03:37:53;;;;;;;0.73;0.68;;;22.40;98.20;;;;;;6274247;22;20197;-82
2023/06/18 03:40:22;;;;;;;0.85;0.55;;;22.40;98.20;;;;;;6273521;22;20189;-80
2023/06/18 03:42:50;;;;;;;0.50;0.50;;;22.40;98.10;;;;;;6271935;22;20631;-81
2023/06/18 03:45:19;;;;;;;0.28;0.28;;;22.40;98.10;;;;;;6273548;22;20170;-81
2023/06/18 03:47:47;;;;;;;1.30;1.08;;;22.50;98.00;;;;;;6273983;22;20169;-82
2023/06/18 03:50:16;;;;;;;0.55;0.50;;;22.50;97.90;;;;;;6273126;22;20215;-81
2023/06/18 03:52:45;;;;;;;9.43;1.10;;;22.50;97.80;;;;;;6273127;22;20185;-81
2023/06/18 03:55:15;;;;;;;0.73;0.73;;;22.50;97.80;;;;;;6273755;22;20172;-80
2023/06/18 03:57:43;;;;;;;0.73;0.73;;;22.50;97.70;;;;;;6273271;22;20169;-81
2023/06/18 04:00:13;;;;;;;0.50;0.50;;;22.60;97.70;;;;;;6273280;22;20174;-81
2023/06/18 04:02:41;;;;;;;0.43;0.43;;;22.60;97.80;;;;;;6272613;22;20277;-83
2023/06/18 04:05:10;;;;;;;2.50;0.80;;;22.60;97.90;;;;;;6272959;22;20177;-81
2023/06/18 04:07:39;;;;;;;5.43;2.05;;;22.60;97.80;;;;;;6273183;22;20243;-81
2023/06/18 04:10:10;;;;;;;1.23;0.80;;;22.60;97.80;;;;;;6271429;22;20170;-82
2023/06/18 04:12:38;;;;;;;1.75;1.23;;;22.60;97.80;;;;;;6274242;22;20205;-81
2023/06/18 04:15:07;;;;;;;6.03;1.67;;;22.60;97.90;;;;;;6272487;22;20166;-82
2023/06/18 04:17:45;;;;;;;1.20;1.10;;;22.70;97.80;;;;;;6272535;22;20635;-81
2023/06/18 04:20:14;;;;;;;0.43;0.43;;;22.60;97.90;;;;;;6270848;22;20181;-81
2023/06/18 04:22:42;;;;;;;2.35;1.25;;;22.70;97.70;;;;;;6272116;22;20645;-81
2023/06/18 04:25:12;;;;;;;0.50;0.50;;;22.70;97.80;;;;;;6271642;22;20169;-81
2023/06/18 04:27:41;;;;;;;1.58;1.42;;;22.70;97.60;;;;;;6270579;22;20476;-82
2023/06/18 04:30:10;;;;;;;0.50;0.50;;;22.80;97.60;;;;;;6270993;22;20193;-80
2023/06/18 04:32:39;;;;;;;4.07;1.05;;;22.80;97.50;;;;;;6270087;22;20210;-82
2023/06/18 04:35:08;;;;;;;0.50;0.50;;;22.80;97.40;;;;;;6271573;22;20197;-81
2023/06/18 04:37:37;;;;;;;0.88;0.60;;;22.80;97.30;;;;;;6269837;22;20253;-81
2023/06/18 04:40:07;;;;;;;1.00;0.95;;;22.90;97.40;;;;;;6270696;22;20579;-80
2023/06/18 04:42:37;;;;;;;0.50;0.50;;;22.90;97.30;;;;;;6273252;22;20224;-81
2023/06/18 04:45:08;;;;;;;1.55;0.70;;;22.80;97.30;;;;;;6273143;22;20245;-82
2023/06/18 04:47:37;;;;;;;0.65;0.43;;;22.80;97.30;;;;;;6272124;22;20170;-82
2023/06/18 04:50:06;;;;;;;0.50;0.50;;;22.90;97.30;;;;;;6271762;22;20197;-80
2023/06/18 04:52:34;;;;;;;1.83;1.48;;;22.90;97.10;;;;;;6272246;22;20163;-81
2023/06/18 04:55:03;;;;;;;0.57;0.57;;;22.90;97.10;;;;;;6272292;22;20207;-81
2023/06/18 04:57:32;;;;;;;2.35;0.90;;;22.90;97.00;;;;;;6271375;22;20245;-81
2023/06/18 05:00:04;;;;;;;0.60;0.60;;;23.00;97.00;;;;;;6272666;22;20196;-81
2023/06/18 05:02:32;;;;;;;0.60;0.60;;;23.10;97.00;;;;;;6273309;22;20154;-81
2023/06/18 05:05:01;;;;;;;2.78;1.45;;;23.10;97.00;;;;;;6272698;22;20170;-82
2023/06/18 05:07:29;;;;;;;1.65;1.17;;;23.10;97.10;;;;;;6272186;22;20541;-81
2023/06/18 05:09:58;;;;;;;0.35;0.35;;;23.20;97.10;;;;;;6273057;22;20178;-82
2023/06/18 05:12:26;;;;;;;0.70;0.43;;;23.20;97.00;;;;;;6272127;22;20170;-82
2023/06/18 05:14:55;;;;;;;1.40;0.88;;;23.30;96.90;;;;;;6272086;22;20631;-80
2023/06/18 05:17:25;;;;;;;0.32;0.32;;;23.30;96.90;;;;;;6271531;22;20178;-80
2023/06/18 05:19:53;;;;;;;2.10;1.02;;;23.40;96.80;;;;;;6272897;22;20194;-79
2023/06/18 05:22:22;;;;;;;0.30;0.30;;;23.40;96.60;;;;;;6272991;22;20178;-79
2023/06/18 05:24:50;;;;;;;0.47;0.43;;;23.40;96.40;;;;;;6272526;22;20181;-79
2023/06/18 05:27:19;;;;;;;0.63;0.47;;;23.50;96.30;;;;;;6271581;22;20184;-78
2023/06/18 05:29:47;;;;;;;1.48;1.38;;;23.50;96.20;;;;;;6270870;22;20177;-81
2023/06/18 05:32:15;;;;;;;0.35;0.35;;;23.60;96.00;;;;;;6272400;22;20181;-80
2023/06/18 05:34:45;;;;;;;0.60;0.60;;;23.60;95.80;;;;;;6270055;22;20170;-81
2023/06/18 05:37:13;;;;;;;0.57;0.57;;;23.70;95.70;;;;;;6271213;22;20172;-83
2023/06/18 05:39:42;;;;;;;0.60;0.60;;;23.70;95.60;;;;;;6273434;22;20603;-81
2023/06/18 05:42:10;;;;;;;0.80;0.65;;;23.70;95.40;;;;;;6271757;22;20174;-82
2023/06/18 05:44:38;;;;;;;1.25;0.98;;;23.80;95.30;;;;;;6272703;22;20169;-83
2023/06/18 05:47:07;;;;;;;1.60;0.52;;;23.80;95.10;;;;;;6272279;22;20174;-83
2023/06/18 05:49:35;;;;;;;0.85;0.70;;;23.80;94.90;;;;;;6273509;22;20268;-83
2023/06/18 05:52:06;;;;;;;2.28;1.30;;;23.90;94.90;;;;;;6272128;22;20173;-83
2023/06/18 05:54:34;;;;;;;0.68;0.63;;;23.90;94.90;;;;;;6274308;22;20154;-82
2023/06/18 05:57:03;;;;;;;0.70;0.65;;;24.00;94.60;;;;;;6272286;22;20169;-82
2023/06/18 05:59:32;;;;;;;0.50;0.50;;;24.00;94.30;;;;;;6272256;22;20190;-83
2023/06/18 06:02:00;;;;;;;0.73;0.50;;;24.00;94.00;;;;;;6270623;22;20170;-82
2023/06/18 06:04:28;;;;;;;0.65;0.65;;;24.10;94.20;;;;;;6271443;22;20595;-82
2023/06/18 06:06:57;;;;;;;0.52;0.52;;;24.10;94.10;;;;;;6271598;22;20212;-83
2023/06/18 06:09:26;;;;;;;2.28;1.13;;;24.20;94.20;;;;;;6272258;22;20177;-82
2023/06/18 06:11:55;;;;;;;0.70;0.70;;;24.20;93.80;;;;;;6274221;22;20166;-82
2023/06/18 06:14:23;;;;;;;0.38;0.38;;;24.30;93.80;;;;;;6272971;22;20181;-83
2023/06/18 06:16:57;;;;;;;0.40;0.40;;;24.30;93.30;;;;;;6273260;22;20166;-83
2023/06/18 06:19:25;;;;;;;1.48;0.65;;;24.30;93.30;;;;;;6272615;22;20261;-82
2023/06/18 06:21:54;;;;;;;0.28;0.28;;;24.30;93.20;;;;;;6267288;22;20631;-81
2023/06/18 06:24:22;;;;;;;0.20;0.20;;;24.30;93.10;;;;;;6244056;22;20170;-83
2023/06/18 06:26:52;;;;;;;0.60;0.60;;;24.30;92.80;;;;;;6245116;22;20197;-84
2023/06/18 06:29:21;;;;;;;0.52;0.30;;;24.30;92.90;;;;;;6270575;22;20196;-82
2023/06/18 06:31:50;;;;;;;1.17;0.68;;;24.30;92.80;;;;;;6273301;22;20166;-83
2023/06/18 06:34:20;;;;;;;0.45;0.45;;;24.40;93.00;;;;;;6273131;22;20178;-83
2023/06/18 06:36:49;;;;;;;0.38;0.38;;;24.50;93.00;;;;;;6273365;22;20170;-83
2023/06/18 06:39:18;;;;;;;0.30;0.30;;;24.50;92.90;;;;;;6273209;22;20646;-83
2023/06/18 06:41:47;;;;;;;0.75;0.40;;;24.50;92.80;;;;;;6273916;22;20241;-84
2023/06/18 06:44:17;;;;;;;0.65;0.40;;;24.60;92.80;;;;;;6274361;22;20180;-83
2023/06/18 06:46:45;;;;;;;1.10;0.65;;;24.60;92.50;;;;;;6248524;22;20499;-82
2023/06/18 06:49:14;;;;;;;0.40;0.40;;;24.70;92.50;;;;;;6274763;22;20177;-82
2023/06/18 06:51:42;;;;;;;1.08;0.98;;;24.80;92.30;;;;;;6273322;22;20193;-81
2023/06/18 06:54:11;;;;;;;10.23;0.70;;;24.80;92.00;;;;;;6274315;22;20208;-84
2023/06/18 06:56:40;;;;;;;1.23;0.60;;;24.90;92.00;;;;;;6274544;22;20169;-82
2023/06/18 06:59:10;;;;;;;2.30;0.95;;;25.00;91.80;;;;;;6271893;22;20205;-81
2023/06/18 07:01:40;;;;;;;0.63;0.63;;;25.00;91.70;;;;;;6273902;22;20190;-81
2023/06/18 07:04:08;;;;;;;1.40;0.80;;;25.10;91.40;;;;;;6273909;22;21006;-83
2023/06/18 07:06:38;;;;;;;0.73;0.68;;;25.10;91.30;;;;;;6274002;22;20219;-83
2023/06/18 07:09:08;;;;;;;1.10;0.60;;;25.10;91.10;;;;;;6270314;22;20216;-83
2023/06/18 07:11:40;;;;;;;1.10;0.60;;;25.20;91.00;;;;;;6270997;22;20587;-82
2023/06/18 07:14:08;;;;;;;14.95;1.52;;;25.30;91.00;;;;;;6274485;22;20154;-83
2023/06/18 07:16:37;;;;;;;0.38;0.35;;;25.30;90.80;;;;;;6246440;22;20231;-82
2023/06/18 07:19:07;;;;;;;0.93;0.93;;;25.30;90.60;;;;;;6271454;22;20644;-83
2023/06/18 07:21:36;;;;;;;1.15;0.93;;;25.40;90.70;;;;;;6272780;22;20249;-84
2023/06/18 07:24:04;;;;;;;1.77;1.45;;;25.40;90.90;;;;;;6272638;22;20197;-84
2023/06/18 07:26:33;;;;;;;0.63;0.45;;;25.50;90.50;;;;;;6272972;22;20607;-85
2023/06/18 07:29:02;;;;;;;1.00;0.77;;;25.50;90.20;;;;;;6274555;22;20219;-84
2023/06/18 07:31:30;;;;;;;1.33;0.30;;;25.50;90.00;;;;;;6274741;22;20170;-85
2023/06/18 07:33:59;;;;;;;0.65;0.65;;;25.60;89.70;;;;;;6274042;22;20176;-85
2023/06/18 07:36:29;;;;;;;0.70;0.68;;;25.60;89.80;;;;;;6271666;22;20162;-83
2023/06/18 07:38:58;;;;;;;0.30;0.30;;;25.70;89.70;;;;;;6246078;22;20170;-84
2023/06/18 07:41:26;;;;;;;0.47;0.47;;;25.70;89.30;;;;;;6272945;22;20531;-84
2023/06/18 07:43:55;;;;;;;0.40;0.40;;;25.80;89.50;;;;;;6274122;22;20166;-84
2023/06/18 07:46:25;;;;;;;0.50;0.50;;;25.80;88.40;;;;;;6273607;22;20631;-85
2023/06/18 07:48:53;;;;;;;1.08;0.47;;;25.80;86.90;;;;;;6274869;22;20173;-86
2023/06/18 07:51:22;;;;;;;0.52;0.50;;;25.90;87.00;;;;;;6271756;22;20199;-82
2023/06/18 07:53:52;;;;;;;0.40;0.30;;;26.00;87.30;;;;;;6274495;22;20169;-84
2023/06/18 07:56:24;;;;;;;0.47;0.40;;;26.10;87.20;;;;;;6271237;22;20472;-85
2023/06/18 07:58:52;;;;;;;1.85;0.95;;;26.10;86.90;;;;;;6272278;22;20603;-83
2023/06/18 08:01:21;;;;;;;2.22;1.20;;;26.20;86.90;;;;;;6273690;22;20220;-84
2023/06/18 08:03:49;;;;;;;0.30;0.30;;;26.20;86.50;;;;;;6274642;22;20199;-83
2023/06/18 08:06:18;;;;;;;0.82;0.80;;;26.30;86.30;;;;;;6273442;22;20174;-82
2023/06/18 08:08:48;;;;;;;0.47;0.43;;;26.30;85.60;;;;;;6273330;22;20172;-82
2023/06/18 08:11:18;;;;;;;1.20;0.70;;;26.40;86.20;;;;;;6272130;22;20227;-82
2023/06/18 08:13:46;;;;;;;2.50;0.50;;;26.40;85.60;;;;;;6273313;22;20161;-82
2023/06/18 08:16:17;;;;;;;0.32;0.32;;;26.50;85.40;;;;;;6272588;22;20172;-83
2023/06/18 08:18:45;;;;;;;0.20;0.20;;;26.50;83.70;;;;;;6275177;22;20169;-83
2023/06/18 08:21:14;;;;;;;0.28;0.28;;;26.60;84.30;;;;;;6272733;22;20194;-84
2023/06/18 08:23:42;;;;;;;1.02;0.30;;;26.70;83.80;;;;;;6274739;22;20176;-82
2023/06/18 08:26:11;;;;;;;0.60;0.60;;;26.80;83.30;;;;;;6270150;22;20249;-81
2023/06/18 08:28:40;;;;;;;0.30;0.30;;;26.80;83.60;;;;;;6273471;22;20172;-83
2023/06/18 08:31:09;;;;;;;4.68;0.73;;;26.90;82.90;;;;;;6272341;22;20486;-82
2023/06/18 08:33:37;;;;;;;1.05;0.50;;;26.90;82.50;;;;;;6273613;22;20172;-82
2023/06/18 08:36:06;;;;;;;0.57;0.57;;;27.00;82.40;;;;;;6271707;22;20172;-80
2023/06/18 08:38:34;;;;;;;0.45;0.45;;;27.10;82.20;;;;;;6272249;22;20177;-83
2023/06/18 08:41:03;;;;;;;1.13;0.88;;;27.00;81.10;;;;;;6272306;22;20559;-82
2023/06/18 08:43:33;;;;;;;0.40;0.40;;;27.00;80.80;;;;;;6274004;22;20162;-82
2023/06/18 08:46:09;;;;;;;0.30;0.30;;;27.10;81.30;;;;;;6272147;22;20170;-83
2023/06/18 08:48:42;;;;;;;0.40;0.40;;;27.10;81.90;;;;;;6272846;22;20595;-83
2023/06/18 08:51:11;;;;;;;1.48;0.38;;;27.10;82.10;;;;;;6271889;22;20158;-83
2023/06/18 08:53:45;;;;;;;0.80;0.68;;;27.20;82.20;;;;;;6272110;22;20549;-82
2023/06/18 08:56:16;;;;;;;0.60;0.60;;;27.10;81.50;;;;;;6272947;22;20154;-82
2023/06/18 08:58:50;;;;;;;4.95;1.55;;;27.20;81.10;;;;;;6273465;22;20173;-83
2023/06/18 09:01:20;;;;;;;0.35;0.35;;;27.20;80.70;;;;;;6272843;22;20185;-82
2023/06/18 09:03:49;;;;;;;0.52;0.52;;;27.20;80.80;;;;;;6271620;22;20701;-83
2023/06/18 09:06:18;;;;;;;0.93;0.73;;;27.30;80.70;;;;;;6270613;22;20203;-83
2023/06/18 09:08:48;;;;;;;1.33;1.08;;;27.30;80.00;;;;;;6273153;22;20809;-83
2023/06/18 09:11:16;;;;;;;0.38;0.38;;;27.30;79.80;;;;;;6272024;22;20248;-82
2023/06/18 09:13:45;;;;;;;0.30;0.30;;;27.40;79.80;;;;;;6271941;22;20261;-83
2023/06/18 09:16:14;;;;;;;0.50;0.50;;;27.50;79.40;;;;;;6271267;22;20166;-82
2023/06/18 09:18:44;;;;;;;1.77;0.88;;;27.40;78.70;;;;;;6273871;22;20177;-83
2023/06/18 09:21:31;;;;;;;0.77;0.77;;;27.50;79.10;;;;;;6271749;22;20225;-82
2023/06/18 09:24:00;;;;;;;1.08;0.40;;;27.50;78.60;;;;;;6272331;22;20154;-81
2023/06/18 09:26:33;;;;;;;0.95;0.45;;;27.60;78.70;;;;;;6272410;22;20170;-82
2023/06/18 09:29:05;;;;;;;0.40;0.40;;;27.70;78.40;;;;;;6272834;22;20157;-83
2023/06/18 09:31:34;;;;;;;2.47;1.20;;;27.70;77.90;;;;;;6271679;22;20177;-81
2023/06/18 09:34:28;;;;;;;1.50;0.82;;;27.70;77.30;;;;;;6273386;22;20639;-82
2023/06/18 09:37:02;;;;;;;1.60;0.77;;;27.90;76.90;;;;;;6273285;22;20162;-83
2023/06/18 09:39:35;;;;;;;0.60;0.55;;;27.90;76.60;;;;;;6272006;22;20172;-84
2023/06/18 09:42:07;;;;;;;11.30;1.55;;;28.00;76.60;;;;;;6271489;22;20186;-82
2023/06/18 09:44:36;;;;;;;0.75;0.52;;;28.00;76.10;;;;;;6270659;22;20709;-82
2023/06/18 09:47:11;;;;;;;0.43;0.35;;;28.10;75.90;;;;;;6271375;22;20177;-82
2023/06/18 09:49:45;;;;;;;0.45;0.38;;;28.20;75.60;;;;;;6272199;22;20650;-82
2023/06/18 09:52:14;;;;;;;0.30;0.30;;;28.30;75.20;;;;;;6267398;22;20173;-83
2023/06/18 09:54:44;;;;;;;0.68;0.50;;;28.30;74.40;;;;;;6268699;22;20157;-81
2023/06/18 09:57:15;;;;;;;0.20;0.20;;;28.40;74.10;;;;;;6270590;22;20154;-83
2023/06/18 09:59:43;;;;;;;0.65;0.65;;;28.40;74.30;;;;;;6270037;22;20254;-80
2023/06/18 10:02:13;;;;;;;0.50;0.43;;;28.50;73.20;;;;;;6268294;22;20260;-83
2023/06/18 10:04:43;;;;;;;1.80;0.43;;;28.60;74.10;;;;;;6270129;22;20154;-82
2023/06/18 10:07:15;;;;;;;0.38;0.30;;;28.70;73.90;;;;;;6271818;22;20172;-83
2023/06/18 10:09:47;;;;;;;1.13;0.93;;;28.70;71.80;;;;;;6272727;22;20607;-82
2023/06/18 10:12:16;;;;;;;0.65;0.32;;;28.70;70.70;;;;;;6271767;22;20161;-83
2023/06/18 10:14:45;;;;;;;0.82;0.50;;;28.80;71.30;;;;;;6271498;22;20641;-81
2023/06/18 10:17:23;;;;;;;0.63;0.55;;;28.90;70.50;;;;;;6274181;22;20219;-83
2023/06/18 10:19:58;;;;;;;11.57;0.50;;;29.00;71.00;;;;;;6275937;22;20157;-83
2023/06/18 10:22:33;;;;;;;0.40;0.40;;;29.10;71.40;;;;;;6273495;22;20185;-83
2023/06/18 10:25:06;;;;;;;1.52;0.98;;;29.20;71.80;;;;;;6274724;22;20154;-82
2023/06/18 10:27:36;;;;;;;1.55;0.80;;;29.30;71.90;;;;;;6274661;22;20603;-83
2023/06/18 10:30:05;;;;;;;0.60;0.60;;;29.40;71.70;;;;;;6274751;22;20181;-82
2023/06/18 10:32:35;;;;;;;0.60;0.60;;;29.40;70.30;;;;;;6274995;22;20173;-82
2023/06/18 10:35:08;;;;;;;2.40;1.25;;;29.40;69.50;;;;;;6273766;22;20666;-83
2023/06/18 10:37:37;;;;;;;0.40;0.40;;;29.60;69.00;;;;;;6275042;22;20191;-82
2023/06/18 10:40:07;;;;;;;0.63;0.47;;;29.70;68.90;;;;;;6274111;22;20189;-82
2023/06/18 10:42:36;;;;;;;0.30;0.30;;;29.70;68.20;;;;;;6275196;22;20199;-81
2023/06/18 10:45:11;;;;;;;0.50;0.50;;;29.80;68.80;;;;;;6272988;22;20182;-82
2023/06/18 10:47:40;;;;;;;0.57;0.47;;;29.80;68.60;;;;;;6272598;22;20629;-83
2023/06/18 10:50:19;;;;;;;1.42;0.70;;;29.90;68.30;;;;;;6273821;22;20505;-81
2023/06/18 10:52:51;;;;;;;1.00;0.40;;;29.80;66.40;;;;;;6274605;22;20229;-83
2023/06/18 10:55:30;;;;;;;1.52;1.15;;;30.00;67.30;;;;;;6273582;22;20611;-81
2023/06/18 10:58:04;;;;;;;0.38;0.38;;;30.10;67.70;;;;;;6276264;22;20157;-82
2023/06/18 11:00:35;;;;;;;0.47;0.32;;;30.10;67.90;;;;;;6275086;22;20630;-81
2023/06/18 11:03:05;;;;;;;0.70;0.63;;;30.10;67.70;;;;;;6272651;22;20190;-83
2023/06/18 11:05:50;;;;;;;0.40;0.40;;;30.10;67.70;;;;;;6274350;22;20181;-81
2023/06/18 11:08:26;;;;;;;1.00;0.90;;;30.20;65.90;;;;;;6273171;22;20164;-82
2023/06/18 11:11:03;;;;;;;0.40;0.40;;;30.20;66.10;;;;;;6270583;22;20173;-80
2023/06/18 11:13:33;;;;;;;0.98;0.73;;;30.30;66.40;;;;;;6273677;22;20189;-80
2023/06/18 11:16:13;;;;;;;1.05;0.75;;;30.30;66.30;;;;;;6269544;22;20675;-81
2023/06/18 11:18:42;;;;;;;0.47;0.47;;;30.40;66.30;;;;;;6275035;22;20161;-80
2023/06/18 11:21:17;;;;;;;0.50;0.40;;;30.40;65.50;;;;;;6272891;22;20253;-81
2023/06/18 11:23:46;;;;;;;1.00;0.60;;;30.40;65.30;;;;;;6273535;22;20186;-80
2023/06/18 11:26:15;;;;;;;0.82;0.52;;;30.40;65.40;;;;;;6271863;22;20173;-81
2023/06/18 11:28:43;;;;;;;0.57;0.55;;;30.50;65.30;;;;;;6273129;22;20622;-80
2023/06/18 11:31:12;;;;;;;0.45;0.45;;;30.50;65.20;;;;;;6273855;22;20166;-82
2023/06/18 11:33:46;;;;;;;1.55;0.52;;;30.50;65.40;;;;;;6272391;22;20498;-79
2023/06/18 11:36:18;;;;;;;0.52;0.50;;;30.50;64.80;;;;;;6273050;22;20161;-80
2023/06/18 11:38:52;;;;;;;0.50;0.50;;;30.50;63.80;;;;;;6272908;22;20154;-81
2023/06/18 11:41:22;;;;;;;2.35;0.75;;;30.60;63.30;;;;;;6273734;22;20577;-80
2023/06/18 11:43:51;;;;;;;0.32;0.32;;;30.60;63.20;;;;;;6273377;22;20646;-80
2023/06/18 11:46:28;;;;;;;0.65;0.65;;;30.70;63.80;;;;;;6273070;22;20219;-81
2023/06/18 11:48:58;;;;;;;1.25;1.10;;;30.70;62.80;;;;;;6272737;22;20185;-81
2023/06/18 11:51:31;;;;;;;0.47;0.38;;;30.60;62.00;;;;;;6273195;22;20516;-81
2023/06/18 11:54:01;;;;;;;0.45;0.45;;;30.70;62.80;;;;;;6273501;22;20211;-79
2023/06/18 11:56:30;;;;;;;0.98;0.77;;;30.70;63.70;;;;;;6272701;22;20174;-81
2023/06/18 11:59:00;;;;;;;0.47;0.47;;;30.80;62.60;;;;;;6273077;22;20497;-81
2023/06/18 12:01:29;;;;;;;0.68;0.65;;;30.80;61.40;;;;;;6274561;22;20176;-81
2023/06/18 12:04:04;;;;;;;2.30;1.10;;;30.70;61.30;;;;;;6273296;22;20231;-81
2023/06/18 12:06:35;;;;;;;1.30;0.77;;;30.70;61.30;;;;;;6270617;22;20247;-81
2023/06/18 12:09:08;;;;;;;0.68;0.45;;;30.70;60.80;;;;;;6269802;22;20607;-81
2023/06/18 12:11:57;;;;;;;0.75;0.75;;;30.80;61.10;;;;;;6271083;22;20155;-82
2023/06/18 12:14:40;;;;;;;1.65;0.50;;;30.90;61.50;;;;;;6273764;22;20165;-83
2023/06/18 12:17:13;;;;;;;0.50;0.45;;;31.00;59.70;;;;;;6270930;22;20158;-82
2023/06/18 12:19:45;;;;;;;0.70;0.70;;;31.00;59.00;;;;;;6271006;22;20615;-83
2023/06/18 12:22:15;;;;;;;2.58;0.65;;;31.00;59.20;;;;;;6269691;22;20165;-81
2023/06/18 12:24:43;;;;;;;0.52;0.52;;;31.00;59.70;;;;;;6273271;22;20174;-83
2023/06/18 12:27:14;;;;;;;1.10;0.40;;;30.90;59.80;;;;;;6271104;22;20172;-81
2023/06/18 12:29:45;;;;;;;0.50;0.40;;;30.80;59.60;;;;;;6272891;22;20241;-83
2023/06/18 12:32:13;;;;;;;0.22;0.22;;;30.60;57.80;;;;;;6273996;22;20154;-82
2023/06/18 12:34:43;;;;;;;0.32;0.22;;;30.30;56.40;;;;;;6274206;22;20219;-82
2023/06/18 12:37:11;;;;;;;1.20;0.45;;;30.00;56.30;;;;;;6268853;22;20224;-80
2023/06/18 12:40:01;;;;;;;0.30;0.30;;;29.70;56.70;;;;;;6269350;22;20166;-81
2023/06/18 12:42:32;;;;;;;0.30;0.30;;;29.40;56.80;;;;;;6268597;22;20165;-82
2023/06/18 12:45:02;;;;;;;0.95;0.63;;;29.10;57.30;;;;;;6272805;22;20154;-81
2023/06/18 12:47:31;;;;;;;0.32;0.32;;;28.90;58.10;;;;;;6272352;22;20180;-81
2023/06/18 12:50:00;;;;;;;1.98;0.90;;;28.70;58.80;;;;;;6272424;22;20223;-82
2023/06/18 12:52:28;;;;;;;0.25;0.25;;;28.50;59.20;;;;;;6272463;22;20204;-80
2023/06/18 12:55:01;;;;;;;0.20;0.20;;;28.40;59.80;;;;;;6271025;22;20185;-81
2023/06/18 12:57:29;;;;;;;0.55;0.55;;;28.20;61.60;;;;;;6273313;22;20154;-81
2023/06/18 12:59:58;;;;;;;0.25;0.25;;;28.10;62.60;;;;;;6274181;22;20166;-81